Time,TemperatureF,DewpointF,PressureIn,WindDirection,WindDirectionDegrees,WindSpeedMPH,WindSpeedGustMPH,Humidity,HourlyPrecipIn,Conditions,Clouds,dailyrainin,SolarRadiationWatts/m^2,SoftwareType,DateUTC
2013-10-23 00:04:00,32.0,28.0,-100.00,West,277,1.0,5.0,85,0.00,,,0.07,0.000000,,2013-10-23 05:04:00,
2013-10-23 00:10:00,31.0,27.0,-100.00,West,272,1.0,4.0,84,0.00,,,0.07,0.000000,,2013-10-23 05:10:00,
2013-10-23 00:43:00,31.0,27.0,-100.00,West,272,1.0,4.0,84,0.00,,,0.07,0.000000,,2013-10-23 05:43:00,
2013-10-23 00:53:00,31.0,27.0,-100.00,West,272,1.0,4.0,84,0.00,,,0.07,0.000000,,2013-10-23 05:53:00,
2013-10-23 01:02:00,31.0,27.0,-100.00,West,272,1.0,4.0,84,0.00,,,0.07,0.000000,,2013-10-23 06:02:00,
2013-10-23 01:10:00,31.0,27.0,-100.00,West,262,1.0,5.0,86,0.00,,,0.06,0.000000,,2013-10-23 06:10:00,
2013-10-23 01:42:00,31.0,27.0,-100.00,West,262,1.0,5.0,86,0.00,,,0.06,0.000000,,2013-10-23 06:42:00,
2013-10-23 01:52:00,31.0,27.0,-100.00,West,262,1.0,5.0,86,0.00,,,0.06,0.000000,,2013-10-23 06:52:00,
2013-10-23 02:01:00,31.0,27.0,-100.00,West,262,1.0,5.0,86,0.00,,,0.06,0.000000,,2013-10-23 07:01:00,
2013-10-23 02:10:00,31.0,28.0,-100.00,NW,319,1.0,5.0,87,0.00,,,0.05,0.000000,,2013-10-23 07:10:00,
2013-10-23 02:42:00,31.0,28.0,-100.00,NW,319,1.0,5.0,87,0.00,,,0.05,0.000000,,2013-10-23 07:42:00,
2013-10-23 02:52:00,31.0,28.0,-100.00,NW,319,1.0,5.0,87,0.00,,,0.05,0.000000,,2013-10-23 07:52:00,
2013-10-23 03:02:00,31.0,28.0,-100.00,NW,319,1.0,5.0,87,0.00,,,0.05,0.000000,,2013-10-23 08:02:00,
2013-10-23 03:10:00,31.0,27.0,-100.00,WNW,301,0.0,6.0,85,0.00,,,0.03,0.000000,,2013-10-23 08:10:00,
2013-10-23 03:42:00,31.0,27.0,-100.00,WNW,301,0.0,6.0,85,0.00,,,0.03,0.000000,,2013-10-23 08:42:00,
2013-10-23 03:53:00,31.0,27.0,-100.00,WNW,301,0.0,6.0,85,0.00,,,0.03,0.000000,,2013-10-23 08:53:00,
2013-10-23 04:02:00,31.0,27.0,-100.00,WNW,301,0.0,6.0,85,0.00,,,0.03,0.000000,,2013-10-23 09:02:00,
2013-10-23 04:10:00,30.0,27.0,-100.00,WSW,258,0.0,4.0,87,0.00,,,0.03,0.000000,,2013-10-23 09:10:00,
2013-10-23 04:43:00,30.0,27.0,-100.00,WSW,258,0.0,4.0,87,0.00,,,0.03,0.000000,,2013-10-23 09:43:00,
2013-10-23 04:53:00,30.0,27.0,-100.00,WSW,258,0.0,4.0,87,0.00,,,0.03,0.000000,,2013-10-23 09:53:00,
2013-10-23 05:03:00,30.0,27.0,-100.00,WSW,258,0.0,4.0,87,0.00,,,0.03,0.000000,,2013-10-23 10:03:00,
2013-10-23 05:10:00,30.0,25.0,-100.00,West,271,1.0,4.0,83,0.00,,,0.02,0.000000,,2013-10-23 10:10:00,
2013-10-23 05:43:00,30.0,25.0,-100.00,West,271,1.0,4.0,83,0.00,,,0.02,0.000000,,2013-10-23 10:43:00,
2013-10-23 05:53:00,30.0,25.0,-100.00,West,271,1.0,4.0,83,0.00,,,0.02,0.000000,,2013-10-23 10:53:00,
2013-10-23 06:02:00,30.0,25.0,-100.00,West,271,1.0,4.0,83,0.00,,,0.02,0.000000,,2013-10-23 11:02:00,
2013-10-23 06:10:00,30.0,24.0,-100.00,WNW,288,1.0,6.0,77,0.00,,,0.01,0.000000,,2013-10-23 11:10:00,
2013-10-23 06:42:00,30.0,24.0,-100.00,WNW,288,1.0,6.0,77,0.00,,,0.01,0.000000,,2013-10-23 11:42:00,
2013-10-23 06:52:00,30.0,24.0,-100.00,WNW,288,1.0,6.0,77,0.00,,,0.01,0.000000,,2013-10-23 11:52:00,
2013-10-23 07:01:00,30.0,24.0,-100.00,WNW,288,1.0,6.0,77,0.00,,,0.01,0.000000,,2013-10-23 12:01:00,
2013-10-23 07:10:00,29.0,23.0,-100.00,West,268,1.0,7.0,77,0.00,,,0.00,0.000000,,2013-10-23 12:10:00,
2013-10-23 07:42:00,29.0,23.0,-100.00,West,268,1.0,7.0,77,0.00,,,0.00,0.000000,,2013-10-23 12:42:00,
2013-10-23 07:52:00,29.0,23.0,-100.00,West,268,1.0,7.0,77,0.00,,,0.00,0.000000,,2013-10-23 12:52:00,
2013-10-23 08:01:00,29.0,23.0,-100.00,West,268,1.0,7.0,77,0.00,,,0.00,0.000000,,2013-10-23 13:01:00,
2013-10-23 08:10:00,28.0,24.0,-100.00,West,271,2.0,6.0,85,0.00,,,0.00,9.000000,,2013-10-23 13:10:00,
2013-10-23 08:43:00,28.0,24.0,-100.00,West,271,2.0,6.0,85,0.00,,,0.00,9.000000,,2013-10-23 13:43:00,
2013-10-23 08:52:00,28.0,24.0,-100.00,West,271,2.0,6.0,85,0.00,,,0.00,9.000000,,2013-10-23 13:52:00,
2013-10-23 09:02:00,28.0,24.0,-100.00,West,271,2.0,6.0,85,0.00,,,0.00,9.000000,,2013-10-23 14:02:00,
2013-10-23 09:10:00,30.0,25.0,-100.00,NW,316,3.0,10.0,83,0.00,,,0.00,45.000000,,2013-10-23 14:10:00,
2013-10-23 09:42:00,30.0,25.0,-100.00,NW,316,3.0,10.0,83,0.00,,,0.00,45.000000,,2013-10-23 14:42:00,
2013-10-23 09:52:00,30.0,25.0,-100.00,NW,316,3.0,10.0,83,0.00,,,0.00,45.000000,,2013-10-23 14:52:00,
2013-10-23 10:01:00,30.0,25.0,-100.00,NW,316,3.0,10.0,83,0.00,,,0.00,45.000000,,2013-10-23 15:01:00,
2013-10-23 10:10:00,32.0,27.0,-100.00,WNW,293,3.0,11.0,82,0.00,,,0.00,99.000000,,2013-10-23 15:10:00,
2013-10-23 10:43:00,32.0,27.0,-100.00,WNW,293,3.0,11.0,82,0.00,,,0.00,99.000000,,2013-10-23 15:43:00,
2013-10-23 10:53:00,32.0,27.0,-100.00,WNW,293,3.0,11.0,82,0.00,,,0.00,99.000000,,2013-10-23 15:53:00,
2013-10-23 11:03:00,32.0,27.0,-100.00,WNW,293,3.0,11.0,82,0.00,,,0.00,99.000000,,2013-10-23 16:03:00,
2013-10-23 11:10:00,34.0,26.0,-100.00,WNW,298,4.0,11.0,73,0.00,,,0.00,169.000000,,2013-10-23 16:10:00,
2013-10-23 11:43:00,34.0,26.0,-100.00,WNW,298,4.0,11.0,73,0.00,,,0.00,169.000000,,2013-10-23 16:43:00,
2013-10-23 11:53:00,34.0,26.0,-100.00,WNW,298,4.0,11.0,73,0.00,,,0.00,169.000000,,2013-10-23 16:53:00,
2013-10-23 12:03:00,34.0,26.0,-100.00,WNW,298,4.0,11.0,73,0.00,,,0.00,169.000000,,2013-10-23 17:03:00,
2013-10-23 12:10:00,36.0,26.0,-100.00,NNW,330,5.0,14.0,66,0.00,,,0.00,190.000000,,2013-10-23 17:10:00,
2013-10-23 12:44:00,36.0,26.0,-100.00,NNW,330,5.0,14.0,66,0.00,,,0.00,190.000000,,2013-10-23 17:44:00,
2013-10-23 12:52:00,36.0,26.0,-100.00,NNW,330,5.0,14.0,66,0.00,,,0.00,190.000000,,2013-10-23 17:52:00,
2013-10-23 13:02:00,36.0,26.0,-100.00,NNW,330,5.0,14.0,66,0.00,,,0.00,190.000000,,2013-10-23 18:02:00,
2013-10-23 14:10:00,37.0,19.0,-100.00,NNW,334,7.0,14.0,48,-99.99,,,0.00,216.000000,,2013-10-23 19:10:00,
2013-10-23 14:42:00,37.0,19.0,-100.00,NNW,334,7.0,14.0,48,-99.99,,,0.00,216.000000,,2013-10-23 19:42:00,
2013-10-23 14:53:00,37.0,19.0,-100.00,NNW,334,7.0,14.0,48,-99.99,,,0.00,216.000000,,2013-10-23 19:53:00,
2013-10-23 15:02:00,37.0,19.0,-100.00,NNW,334,7.0,14.0,48,-99.99,,,0.00,216.000000,,2013-10-23 20:02:00,
2013-10-23 15:10:00,36.0,22.0,-100.00,NW,322,6.0,15.0,56,0.00,,,0.00,251.000000,,2013-10-23 20:10:00,
2013-10-23 15:42:00,36.0,22.0,-100.00,NW,322,6.0,15.0,56,0.00,,,0.00,251.000000,,2013-10-23 20:42:00,
2013-10-23 15:52:00,36.0,22.0,-100.00,NW,322,6.0,15.0,56,0.00,,,0.00,251.000000,,2013-10-23 20:52:00,
2013-10-23 16:02:00,36.0,22.0,-100.00,NW,322,6.0,15.0,56,0.00,,,0.00,251.000000,,2013-10-23 21:02:00,
2013-10-23 16:10:00,33.0,23.0,-100.00,NNW,328,7.0,18.0,65,0.00,,,0.00,55.000000,,2013-10-23 21:10:00,
2013-10-23 16:43:00,33.0,23.0,-100.00,NNW,328,7.0,18.0,65,0.00,,,0.00,55.000000,,2013-10-23 21:43:00,
2013-10-23 16:54:00,33.0,23.0,-100.00,NNW,328,7.0,18.0,65,0.00,,,0.00,55.000000,,2013-10-23 21:54:00,
2013-10-23 17:04:00,33.0,23.0,-100.00,NNW,328,7.0,18.0,65,0.00,,,0.00,55.000000,,2013-10-23 22:04:00,
2013-10-23 17:10:00,33.0,21.0,-100.00,NNW,333,6.0,13.0,62,0.00,,,0.00,50.000000,,2013-10-23 22:10:00,
2013-10-23 17:43:00,33.0,21.0,-100.00,NNW,333,6.0,13.0,62,0.00,,,0.00,50.000000,,2013-10-23 22:43:00,
2013-10-23 17:54:00,33.0,21.0,-100.00,NNW,333,6.0,13.0,62,0.00,,,0.00,50.000000,,2013-10-23 22:54:00,
2013-10-23 18:03:00,33.0,21.0,-100.00,NNW,333,6.0,13.0,62,0.00,,,0.00,50.000000,,2013-10-23 23:03:00,
2013-10-23 18:10:00,32.0,20.0,-100.00,NW,324,4.0,12.0,60,0.00,,,0.00,14.000000,,2013-10-23 23:10:00,
2013-10-23 18:43:00,32.0,20.0,-100.00,NW,324,4.0,12.0,60,0.00,,,0.00,14.000000,,2013-10-23 23:43:00,
2013-10-23 18:53:00,32.0,20.0,-100.00,NW,324,4.0,12.0,60,0.00,,,0.00,14.000000,,2013-10-23 23:53:00,
2013-10-23 19:02:00,32.0,20.0,-100.00,NW,324,4.0,12.0,60,0.00,,,0.00,14.000000,,2013-10-24 00:02:00,
2013-10-23 19:10:00,32.0,21.0,-100.00,NNW,328,3.0,9.0,63,0.00,,,0.00,0.000000,,2013-10-24 00:10:00,
2013-10-23 19:43:00,32.0,21.0,-100.00,NNW,328,3.0,9.0,63,0.00,,,0.00,0.000000,,2013-10-24 00:43:00,
2013-10-23 19:52:00,32.0,21.0,-100.00,NNW,328,3.0,9.0,63,0.00,,,0.00,0.000000,,2013-10-24 00:52:00,
2013-10-23 20:01:00,32.0,21.0,-100.00,NNW,328,3.0,9.0,63,0.00,,,0.00,0.000000,,2013-10-24 01:01:00,
2013-10-23 20:10:00,32.0,22.0,-100.00,NW,320,5.0,12.0,65,0.00,,,0.00,0.000000,,2013-10-24 01:10:00,
2013-10-23 20:42:00,32.0,22.0,-100.00,NW,320,5.0,12.0,65,0.00,,,0.00,0.000000,,2013-10-24 01:42:00,
2013-10-23 20:52:00,32.0,22.0,-100.00,NW,320,5.0,12.0,65,0.00,,,0.00,0.000000,,2013-10-24 01:52:00,
2013-10-23 21:02:00,32.0,22.0,-100.00,NW,320,5.0,12.0,65,0.00,,,0.00,0.000000,,2013-10-24 02:02:00,
2013-10-23 21:10:00,32.0,23.0,-100.00,NW,323,5.0,11.0,68,0.00,,,0.00,0.000000,,2013-10-24 02:10:00,
2013-10-23 21:52:00,32.0,23.0,-100.00,NW,323,5.0,11.0,68,0.00,,,0.00,0.000000,,2013-10-24 02:52:00,
2013-10-23 22:02:00,32.0,23.0,-100.00,NW,323,5.0,11.0,68,0.00,,,0.00,0.000000,,2013-10-24 03:02:00,
2013-10-23 22:10:00,32.0,24.0,-100.00,NW,317,6.0,18.0,71,0.00,,,0.00,0.000000,,2013-10-24 03:10:00,
2013-10-23 22:44:00,32.0,24.0,-100.00,NW,317,6.0,18.0,71,0.00,,,0.00,0.000000,,2013-10-24 03:44:00,
2013-10-23 22:55:00,32.0,24.0,-100.00,NW,317,6.0,18.0,71,0.00,,,0.00,0.000000,,2013-10-24 03:55:00,
2013-10-23 23:04:00,32.0,24.0,-100.00,NW,317,6.0,18.0,71,0.00,,,0.00,0.000000,,2013-10-24 04:04:00,
2013-10-23 23:10:00,31.0,25.0,-100.00,NNW,328,5.0,13.0,77,0.00,,,0.00,0.000000,,2013-10-24 04:10:00,
2013-10-23 23:44:00,31.0,25.0,-100.00,NNW,328,5.0,13.0,77,0.00,,,0.00,0.000000,,2013-10-24 04:44:00,
2013-10-23 23:54:00,31.0,25.0,-100.00,NNW,328,5.0,13.0,77,0.00,,,0.00,0.000000,,2013-10-24 04:54:00,